createdAt,value
2022-09-13T00:02:21.604Z,24.00
2022-09-13T00:07:28.631Z,24.00
2022-09-13T00:12:35.832Z,24.00
2022-09-13T00:17:43.034Z,24.00
2022-09-13T00:22:50.232Z,24.00
2022-09-13T00:27:57.386Z,24.00
2022-09-13T00:33:04.843Z,24.10
2022-09-13T00:38:11.827Z,24.10
2022-09-13T00:43:18.976Z,24.10
2022-09-13T00:48:26.151Z,24.20
2022-09-13T00:53:33.534Z,24.20
2022-09-13T00:58:40.745Z,24.20
2022-09-13T01:03:48.223Z,24.20
2022-09-13T01:08:55.177Z,24.20
2022-09-13T01:14:02.362Z,24.30
2022-09-13T01:19:09.689Z,24.20
2022-09-13T01:24:16.769Z,24.20
2022-09-13T01:29:23.980Z,24.30
2022-09-13T01:34:31.200Z,24.30
2022-09-13T01:39:38.426Z,24.30
2022-09-13T01:44:45.694Z,24.30
2022-09-13T01:49:52.935Z,24.30
2022-09-13T01:55:00.115Z,24.30
2022-09-13T02:00:07.300Z,24.30
2022-09-13T02:05:14.493Z,24.30
2022-09-13T02:10:21.728Z,24.30
2022-09-13T02:15:28.898Z,24.30
2022-09-13T02:20:36.166Z,24.30
2022-09-13T02:25:43.347Z,24.30
2022-09-13T02:30:50.533Z,24.30
2022-09-13T02:35:57.742Z,24.30
2022-09-13T02:41:05.453Z,24.30
2022-09-13T02:46:12.653Z,24.30
2022-09-13T02:51:19.869Z,24.30
2022-09-13T02:56:27.038Z,24.30
2022-09-13T03:01:34.331Z,24.30
2022-09-13T03:06:41.518Z,24.30
2022-09-13T03:11:48.692Z,24.30
2022-09-13T03:16:56.045Z,24.30
2022-09-13T03:22:03.197Z,24.30
2022-09-13T03:27:10.323Z,24.30
2022-09-13T03:32:17.587Z,24.20
2022-09-13T03:37:24.851Z,24.30
2022-09-13T03:42:32.040Z,24.20
2022-09-13T03:47:39.209Z,24.20
2022-09-13T03:52:46.718Z,24.20
2022-09-13T03:57:54.049Z,24.20
2022-09-13T04:03:01.254Z,24.20
2022-09-13T04:08:08.506Z,24.20
2022-09-13T04:13:15.664Z,24.20
2022-09-13T04:18:22.849Z,24.20
2022-09-13T04:23:30.166Z,24.20
2022-09-13T04:28:37.225Z,24.20
2022-09-13T04:33:44.408Z,24.20
2022-09-13T04:38:51.598Z,24.20
2022-09-13T04:43:58.814Z,24.20
2022-09-13T04:49:05.977Z,24.20
2022-09-13T04:54:15.546Z,24.20
2022-09-13T04:59:20.456Z,24.10
2022-09-13T05:04:27.697Z,24.10
2022-09-13T05:09:34.911Z,24.10
2022-09-13T05:14:42.090Z,24.20
2022-09-13T05:19:49.331Z,24.20
2022-09-13T05:24:56.618Z,24.20
2022-09-13T05:30:03.748Z,24.10
2022-09-13T05:35:10.927Z,24.10
2022-09-13T05:40:18.188Z,24.10
2022-09-13T05:45:25.317Z,24.10
2022-09-13T05:50:57.202Z,24.10
2022-09-13T05:55:39.782Z,24.10
2022-09-13T06:00:46.922Z,24.10
2022-09-13T06:05:54.160Z,24.10
2022-09-13T06:11:01.405Z,24.10
2022-09-13T06:16:08.555Z,24.10
2022-09-13T06:21:15.707Z,24.10
2022-09-13T06:26:22.946Z,24.10
2022-09-13T06:31:30.306Z,24.10
2022-09-13T06:36:37.359Z,24.00
2022-09-13T06:41:44.723Z,24.00
2022-09-13T06:46:51.808Z,24.00
2022-09-13T06:51:59.076Z,24.00
2022-09-13T06:57:06.403Z,24.00
2022-09-13T07:02:13.577Z,24.00
2022-09-13T07:07:20.733Z,24.00
2022-09-13T07:12:28.004Z,24.00
2022-09-13T07:17:35.173Z,24.00
2022-09-13T07:22:42.327Z,24.00
2022-09-13T07:27:49.594Z,24.00
2022-09-13T07:32:56.719Z,24.00
2022-09-13T07:38:03.923Z,24.00
2022-09-13T07:43:11.170Z,24.00
2022-09-13T07:48:18.393Z,24.00
2022-09-13T07:53:25.805Z,24.00
2022-09-13T07:58:33.109Z,24.00
2022-09-13T08:03:40.176Z,24.00
2022-09-13T08:08:47.398Z,24.00
2022-09-13T08:13:54.648Z,24.00
2022-09-13T08:19:01.811Z,24.00
2022-09-13T08:24:09.030Z,24.10
2022-09-13T08:29:16.610Z,24.10
2022-09-13T08:34:23.833Z,24.10
2022-09-13T08:39:33.446Z,24.10
2022-09-13T08:44:38.196Z,24.00
2022-09-13T08:49:45.351Z,24.10
2022-09-13T08:54:57.482Z,24.10
2022-09-13T08:59:59.866Z,24.10
2022-09-13T09:05:07.065Z,24.10
2022-09-13T09:10:14.222Z,24.10
2022-09-13T09:15:21.485Z,24.20
2022-09-13T09:20:28.645Z,24.10
2022-09-13T09:25:35.839Z,24.10
2022-09-13T09:30:43.106Z,24.10
2022-09-13T09:35:50.191Z,24.20
2022-09-13T09:40:57.396Z,24.20
2022-09-13T09:46:04.689Z,24.20
2022-09-13T09:51:11.755Z,24.20
2022-09-13T09:56:18.913Z,24.20
2022-09-13T10:01:26.250Z,24.20
2022-09-13T10:06:33.363Z,24.20
2022-09-13T10:11:40.605Z,24.30
2022-09-13T10:16:47.893Z,24.20
2022-09-13T10:21:55.031Z,24.30
2022-09-13T10:27:02.256Z,24.30
2022-09-13T10:32:09.724Z,24.30
2022-09-13T10:37:16.918Z,24.30
2022-09-13T10:42:24.133Z,24.30
2022-09-13T10:47:31.448Z,24.30
2022-09-13T10:52:38.598Z,24.30
2022-09-13T10:57:45.839Z,24.40
2022-09-13T11:02:53.069Z,24.40
2022-09-13T11:08:00.261Z,24.40
2022-09-13T11:13:07.475Z,24.40
2022-09-13T11:18:14.739Z,24.40
2022-09-13T11:23:21.867Z,24.40
2022-09-13T11:28:29.083Z,24.40
2022-09-13T11:33:36.390Z,24.40
2022-09-13T11:38:43.480Z,24.40
2022-09-13T11:43:50.790Z,24.50
2022-09-13T11:48:58.026Z,24.50
2022-09-13T11:54:05.152Z,24.50
2022-09-13T11:59:15.600Z,24.50
2022-09-13T12:04:19.675Z,24.50
2022-09-13T12:09:26.906Z,24.50
2022-09-13T12:14:34.162Z,24.60
2022-09-13T12:19:41.460Z,24.60
2022-09-13T12:24:48.565Z,24.60
2022-09-13T12:29:55.736Z,24.60
2022-09-13T12:35:03.026Z,24.60
2022-09-13T12:40:10.311Z,24.70
2022-09-13T12:45:17.432Z,24.70
2022-09-13T12:55:46.486Z,24.70
2022-09-13T13:00:39.068Z,24.70
2022-09-13T13:05:46.188Z,24.70
2022-09-13T13:10:53.329Z,24.70
2022-09-13T13:16:00.547Z,24.80
2022-09-13T13:21:07.661Z,24.80
2022-09-13T13:26:14.802Z,24.80
2022-09-13T13:31:22.125Z,24.80
2022-09-13T13:36:29.234Z,24.80
2022-09-13T13:41:36.397Z,24.90
2022-09-13T13:46:43.593Z,24.80
2022-09-13T13:51:50.922Z,24.90
2022-09-13T13:56:58.013Z,24.90
2022-09-13T14:02:05.225Z,24.90
2022-09-13T14:07:19.408Z,24.90
2022-09-13T14:12:19.648Z,24.90
2022-09-13T14:17:26.953Z,24.90
2022-09-13T14:22:34.343Z,25.00
2022-09-13T14:27:41.333Z,25.00
2022-09-13T14:32:48.547Z,25.00
2022-09-13T14:37:55.808Z,25.00
2022-09-13T14:43:02.953Z,25.00
2022-09-13T14:48:10.183Z,25.00
2022-09-13T14:53:17.432Z,25.00
2022-09-13T14:58:24.609Z,25.10
2022-09-13T15:03:31.766Z,25.00
2022-09-13T15:08:39.050Z,25.00
2022-09-13T15:13:46.185Z,25.10
2022-09-13T15:18:53.373Z,25.10
2022-09-13T15:24:00.634Z,25.10
2022-09-13T15:29:07.800Z,25.10
2022-09-13T15:34:15.011Z,25.10
2022-09-13T15:39:22.230Z,25.10
2022-09-13T15:44:29.466Z,25.10
2022-09-13T15:49:36.710Z,25.10
2022-09-13T15:54:44.039Z,25.10
2022-09-13T15:59:51.135Z,25.10
2022-09-13T16:04:58.405Z,25.20
2022-09-13T16:10:05.693Z,25.20
2022-09-13T16:15:12.856Z,25.20
2022-09-13T16:20:20.063Z,25.20
2022-09-13T16:25:27.523Z,25.20
2022-09-13T16:30:34.589Z,25.20
2022-09-13T16:35:41.764Z,25.20
2022-09-13T16:40:49.093Z,25.20
2022-09-13T16:45:56.183Z,25.20
2022-09-13T16:51:03.406Z,25.20
2022-09-13T16:56:10.616Z,25.20
2022-09-13T17:01:17.773Z,25.30
2022-09-13T17:06:24.942Z,25.30
2022-09-13T17:11:32.146Z,25.30
2022-09-13T17:16:39.432Z,25.30
2022-09-13T17:21:46.510Z,25.30
2022-09-13T17:26:53.827Z,25.30
2022-09-13T17:32:00.918Z,25.30
2022-09-13T17:37:08.126Z,25.30
2022-09-13T17:42:16.171Z,25.30
2022-09-13T17:47:22.587Z,25.30
2022-09-13T17:52:34.205Z,25.30
2022-09-13T17:57:37.074Z,25.40
2022-09-13T18:02:44.226Z,25.30
2022-09-13T18:07:52.560Z,25.40
2022-09-13T18:12:59.895Z,25.40
2022-09-13T18:18:07.399Z,25.30
2022-09-13T18:23:14.911Z,25.40
2022-09-13T18:28:24.801Z,25.30
2022-09-13T18:33:32.394Z,25.30
2022-09-13T18:38:40.037Z,25.40
2022-09-13T18:43:50.600Z,25.40
2022-09-13T18:48:55.337Z,25.40
2022-09-13T18:54:03.058Z,25.40
2022-09-13T18:59:10.784Z,25.40
2022-09-13T19:04:18.179Z,25.40
2022-09-13T19:09:25.901Z,25.40
2022-09-13T19:14:33.620Z,25.40
2022-09-13T19:19:41.127Z,25.40
2022-09-13T19:24:48.742Z,25.40
2022-09-13T19:29:56.485Z,25.40
2022-09-13T19:35:04.079Z,25.40
2022-09-13T19:40:11.810Z,25.40
2022-09-13T19:45:19.323Z,25.40
2022-09-13T19:50:26.915Z,25.40
2022-09-13T19:55:34.532Z,25.40
2022-09-13T20:00:42.133Z,25.40
2022-09-13T20:05:49.663Z,25.40
2022-09-13T20:10:57.189Z,25.40
2022-09-13T20:16:04.869Z,25.40
2022-09-13T20:21:12.405Z,25.40
2022-09-13T20:26:20.014Z,25.40
2022-09-13T20:31:27.661Z,25.40
2022-09-13T20:36:35.239Z,25.40
2022-09-13T20:41:42.859Z,25.40
2022-09-13T20:46:50.489Z,25.40
2022-09-13T20:51:57.979Z,25.40
2022-09-13T20:57:05.289Z,25.40
2022-09-13T21:02:12.624Z,25.40
2022-09-13T21:07:19.718Z,25.40
2022-09-13T21:12:26.898Z,25.40
2022-09-13T21:17:34.250Z,25.40
2022-09-13T21:22:41.318Z,25.40
2022-09-13T21:27:48.512Z,25.40
2022-09-13T21:32:55.772Z,25.40
2022-09-13T21:38:02.998Z,25.40
2022-09-13T21:43:10.242Z,25.40
2022-09-13T21:48:17.547Z,25.40
2022-09-13T21:53:24.717Z,25.40
2022-09-13T21:58:31.981Z,25.40
2022-09-13T22:03:39.246Z,25.40
2022-09-13T22:08:46.384Z,25.40
2022-09-13T22:13:53.584Z,25.40
2022-09-13T22:19:03.283Z,25.40
2022-09-13T22:24:07.943Z,25.40
2022-09-13T22:29:15.190Z,25.40
2022-09-13T22:34:22.413Z,25.40
2022-09-13T22:39:29.590Z,25.40
2022-09-13T22:44:36.806Z,25.40
2022-09-13T22:49:44.030Z,25.40
2022-09-13T22:54:51.208Z,25.40
2022-09-13T22:59:58.477Z,25.40
2022-09-13T23:05:05.753Z,25.40
2022-09-13T23:10:12.932Z,25.30
2022-09-13T23:15:20.146Z,25.30
2022-09-13T23:20:27.452Z,25.30
2022-09-13T23:25:34.594Z,25.30
2022-09-13T23:30:41.842Z,25.30
2022-09-13T23:35:49.077Z,25.30
2022-09-13T23:40:56.263Z,25.30
2022-09-13T23:46:03.552Z,25.30
2022-09-13T23:51:10.770Z,25.30
2022-09-13T23:56:17.864Z,25.30
